Time;durP1;ratioP1;P1;durP2;ratioP2;P2;SDS_P1;SDS_P2;PMS_P1;PMS_P2;Temp;Humidity;BMP_temperature;BMP_pressure;BME280_temperature;BME280_humidity;BME280_pressure;Samples;Min_cycle;Max_cycle;Signal;HPM_P1;HPM_P2
2021/12/18 00:18:36;;;;;;;8.13;6.53;;;;;;;;;;4713350;29;20110;-61
2021/12/18 00:21:04;;;;;;;8.10;6.47;;;;;;;;;;4122065;34;20229;-61
2021/12/18 00:23:30;;;;;;;8.30;6.62;;;;;;;;;;4121098;34;20107;-61
2021/12/18 00:25:56;;;;;;;7.50;6.60;;;;;;;;;;4122713;34;20134;-65
2021/12/18 00:28:23;;;;;;;6.93;6.22;;;;;;;;;;4122625;34;20437;-64
2021/12/18 00:30:49;;;;;;;8.68;7.78;;;;;;;;;;4122533;34;20092;-61
2021/12/18 00:33:15;;;;;;;8.65;7.10;;;;;;;;;;4122767;34;20528;-61
2021/12/18 00:35:41;;;;;;;8.77;7.87;;;;;;;;;;4122661;34;20115;-61
2021/12/18 00:38:08;;;;;;;7.60;6.75;;;;;;;;;;4132483;34;20120;-61
2021/12/18 00:40:59;;;;;;;7.53;6.82;;;;;;;;;;4122583;34;20131;-61
2021/12/18 00:43:33;;;;;;;7.22;6.53;;;;;;;;;;4122726;34;20210;-61
2021/12/18 00:46:00;;;;;;;6.97;6.28;;;;;;;;;;4129441;34;20135;-60
2021/12/18 00:48:26;;;;;;;7.30;6.60;;;;;;;;;;4122471;34;20119;-60
2021/12/18 00:50:53;;;;;;;6.95;6.25;;;;;;;;;;4124569;34;20568;-62
2021/12/18 00:53:19;;;;;;;7.60;6.80;;;;;;;;;;4124515;34;20621;-60
2021/12/18 00:55:46;;;;;;;6.78;6.00;;;;;;;;;;4124439;34;20115;-61
2021/12/18 00:58:12;;;;;;;6.70;6.00;;;;;;;;;;4124519;34;20213;-61
2021/12/18 01:00:41;;;;;;;7.05;5.62;;;;;;;;;;4134152;34;20269;-61
2021/12/18 01:03:15;;;;;;;7.07;6.37;;;;;;;;;;4101112;34;20197;-61
2021/12/18 01:05:42;;;;;;;6.47;5.87;;;;;;;;;;4122557;34;20193;-59
2021/12/18 01:08:08;;;;;;;7.10;6.40;;;;;;;;;;4124413;34;20542;-60
2021/12/18 01:13:02;;;;;;;6.78;6.18;;;;;;;;;;4124343;34;20131;-60
2021/12/18 01:15:36;;;;;;;6.90;6.20;;;;;;;;;;4124292;34;21012;-60
2021/12/18 01:23:33;;;;;;;7.18;6.15;;;;;;;;;;4124285;34;20092;-60
2021/12/18 01:25:59;;;;;;;7.40;6.60;;;;;;;;;;4124181;34;20198;-60
2021/12/18 01:28:25;;;;;;;7.05;6.45;;;;;;;;;;4124266;34;20741;-60
2021/12/18 01:30:51;;;;;;;7.30;6.53;;;;;;;;;;4124257;34;20192;-60
2021/12/18 01:33:17;;;;;;;7.53;6.72;;;;;;;;;;4111838;34;20100;-59
2021/12/18 01:35:43;;;;;;;6.97;6.28;;;;;;;;;;4124056;34;20092;-59
2021/12/18 01:38:11;;;;;;;8.00;7.20;;;;;;;;;;4124085;34;20427;-59
2021/12/18 01:40:37;;;;;;;8.57;7.03;;;;;;;;;;4123796;34;20111;-59
2021/12/18 01:46:39;;;;;;;7.93;6.32;;;;;;;;;;4082054;35;20619;-59
2021/12/18 01:54:11;;;;;;;8.05;7.12;;;;;;;;;;4124070;34;20203;-60
2021/12/18 01:56:37;;;;;;;7.30;6.28;;;;;;;;;;4123856;34;20107;-59
2021/12/18 01:59:03;;;;;;;7.82;7.03;;;;;;;;;;4123699;34;20542;-59
2021/12/18 02:01:29;;;;;;;8.32;7.18;;;;;;;;;;4124014;34;20123;-59
2021/12/18 02:03:55;;;;;;;7.82;7.00;;;;;;;;;;4124035;34;20115;-59
2021/12/18 02:06:22;;;;;;;8.25;7.20;;;;;;;;;;4111602;34;20501;-59
2021/12/18 02:08:49;;;;;;;7.78;6.57;;;;;;;;;;4124034;34;20202;-59
2021/12/18 02:19:46;;;;;;;8.93;6.82;;;;;;;;;;4102349;34;20125;-59
2021/12/18 02:22:13;;;;;;;7.37;6.57;;;;;;;;;;4123752;34;20088;-58
2021/12/18 02:24:39;;;;;;;7.05;6.35;;;;;;;;;;4123940;34;20107;-58
2021/12/18 02:27:06;;;;;;;7.72;6.35;;;;;;;;;;4123796;34;20135;-59
2021/12/18 02:29:33;;;;;;;7.00;6.30;;;;;;;;;;4123857;34;20132;-59
2021/12/18 02:31:59;;;;;;;7.35;6.60;;;;;;;;;;4123779;34;20203;-59
2021/12/18 02:34:30;;;;;;;7.28;6.57;;;;;;;;;;4123808;34;20115;-58
2021/12/18 02:37:03;;;;;;;6.78;6.07;;;;;;;;;;4123659;34;20177;-59
2021/12/18 02:39:56;;;;;;;6.78;6.05;;;;;;;;;;4123832;34;20124;-59
2021/12/18 02:42:22;;;;;;;6.55;5.85;;;;;;;;;;4123736;34;20119;-59
2021/12/18 02:44:49;;;;;;;6.95;6.25;;;;;;;;;;4123513;34;20190;-59
2021/12/18 02:47:15;;;;;;;7.10;6.40;;;;;;;;;;4123869;34;20106;-59
2021/12/18 02:49:47;;;;;;;6.95;6.00;;;;;;;;;;4123987;34;20115;-59
2021/12/18 02:52:13;;;;;;;7.20;6.50;;;;;;;;;;4123935;34;20114;-59
2021/12/18 02:54:40;;;;;;;6.28;5.50;;;;;;;;;;4123568;34;20502;-58
2021/12/18 02:57:06;;;;;;;7.22;6.53;;;;;;;;;;4123411;34;20127;-59
2021/12/18 02:59:46;;;;;;;6.62;6.03;;;;;;;;;;4133005;34;20151;-59
2021/12/18 03:02:12;;;;;;;6.18;5.57;;;;;;;;;;4123505;34;20107;-59
2021/12/18 03:04:40;;;;;;;6.62;5.80;;;;;;;;;;4133374;34;20122;-59
2021/12/18 03:07:09;;;;;;;6.28;5.55;;;;;;;;;;4123432;34;20194;-60
2021/12/18 03:25:29;;;;;;;10.07;6.37;;;;;;;;;;4123230;34;20116;-59
2021/12/18 03:27:55;;;;;;;7.53;6.22;;;;;;;;;;4123260;34;20136;-59
2021/12/18 03:30:21;;;;;;;8.73;6.55;;;;;;;;;;4123147;34;20112;-60
2021/12/18 03:32:48;;;;;;;7.82;6.32;;;;;;;;;;4123279;34;20578;-60
2021/12/18 03:35:15;;;;;;;7.65;6.85;;;;;;;;;;4123022;34;20548;-60
2021/12/18 03:37:41;;;;;;;7.28;6.35;;;;;;;;;;4123198;34;20084;-60
2021/12/18 03:40:11;;;;;;;10.43;7.00;;;;;;;;;;4132779;34;20131;-60
2021/12/18 03:42:37;;;;;;;7.85;6.90;;;;;;;;;;4133038;34;20122;-64
2021/12/18 03:45:04;;;;;;;7.37;6.37;;;;;;;;;;4123009;34;20182;-64
2021/12/18 03:47:30;;;;;;;7.80;6.30;;;;;;;;;;4123061;34;20129;-65
2021/12/18 03:49:56;;;;;;;9.48;6.95;;;;;;;;;;4123174;34;20576;-65
2021/12/18 03:52:23;;;;;;;9.55;7.05;;;;;;;;;;4123063;34;20244;-65
2021/12/18 03:54:49;;;;;;;8.73;6.82;;;;;;;;;;4122954;34;20103;-64
2021/12/18 03:57:15;;;;;;;10.88;6.95;;;;;;;;;;4123276;34;20103;-64
2021/12/18 03:59:41;;;;;;;8.30;6.78;;;;;;;;;;4123055;34;20284;-63
2021/12/18 04:02:07;;;;;;;9.23;7.32;;;;;;;;;;4123138;34;20594;-64
2021/12/18 04:04:33;;;;;;;9.07;7.15;;;;;;;;;;4122809;34;20131;-67
2021/12/18 04:07:00;;;;;;;8.07;5.93;;;;;;;;;;4123056;34;20106;-66
2021/12/18 04:09:30;;;;;;;8.55;6.87;;;;;;;;;;4122801;34;20126;-67
2021/12/18 04:11:57;;;;;;;7.90;6.40;;;;;;;;;;4122782;34;20134;-67
2021/12/18 04:14:23;;;;;;;7.95;6.47;;;;;;;;;;4122667;34;20531;-68
2021/12/18 04:16:49;;;;;;;7.22;6.50;;;;;;;;;;4122972;34;20095;-67
2021/12/18 04:19:15;;;;;;;9.00;5.87;;;;;;;;;;4122552;34;20112;-67
2021/12/18 04:21:41;;;;;;;8.90;6.70;;;;;;;;;;4122662;34;20612;-65
2021/12/18 04:24:08;;;;;;;8.93;6.50;;;;;;;;;;4122802;34;20139;-64
2021/12/18 04:26:34;;;;;;;9.18;7.00;;;;;;;;;;4122654;34;20208;-66
2021/12/18 04:29:03;;;;;;;7.20;6.35;;;;;;;;;;4122588;34;20209;-64
2021/12/18 04:31:29;;;;;;;7.28;6.07;;;;;;;;;;4121859;34;20119;-64
2021/12/18 04:33:55;;;;;;;8.10;6.18;;;;;;;;;;4121784;34;20555;-64
2021/12/18 04:36:21;;;;;;;8.57;6.57;;;;;;;;;;4122436;34;20123;-65
2021/12/18 04:38:48;;;;;;;9.05;6.57;;;;;;;;;;4122545;34;20508;-64
2021/12/18 04:41:22;;;;;;;6.28;5.55;;;;;;;;;;4121581;34;20134;-64
2021/12/18 04:43:48;;;;;;;7.00;5.68;;;;;;;;;;4120409;34;20228;-64
2021/12/18 04:46:14;;;;;;;8.13;6.25;;;;;;;;;;4120351;34;20172;-65
2021/12/18 04:48:43;;;;;;;8.35;6.07;;;;;;;;;;4120520;34;20104;-67
2021/12/18 04:51:09;;;;;;;7.80;5.95;;;;;;;;;;4118999;34;20457;-67
2021/12/18 04:53:35;;;;;;;12.95;7.25;;;;;;;;;;4120314;34;20114;-67
2021/12/18 04:56:02;;;;;;;15.52;7.37;;;;;;;;;;4120735;34;20130;-65
2021/12/18 04:58:28;;;;;;;22.23;8.00;;;;;;;;;;4131950;34;20154;-63
2021/12/18 05:00:55;;;;;;;19.12;9.05;;;;;;;;;;4122294;34;20552;-65
2021/12/18 05:04:45;;;;;;;31.98;11.38;;;;;;;;;;4122268;34;20100;-63
2021/12/18 05:07:03;;;;;;;15.68;8.73;;;;;;;;;;4104284;34;20115;-64
2021/12/18 05:09:29;;;;;;;15.27;9.30;;;;;;;;;;4122085;34;20196;-63
2021/12/18 05:11:55;;;;;;;16.92;9.57;;;;;;;;;;4122086;34;20133;-64
2021/12/18 05:14:22;;;;;;;18.95;9.02;;;;;;;;;;4122039;34;20126;-63
2021/12/18 05:16:48;;;;;;;13.88;9.60;;;;;;;;;;4121920;34;20114;-63
2021/12/18 05:19:14;;;;;;;19.67;12.75;;;;;;;;;;4121887;34;20104;-65
2021/12/18 05:21:40;;;;;;;18.67;14.05;;;;;;;;;;4121896;34;20144;-64
2021/12/18 05:24:06;;;;;;;19.23;14.30;;;;;;;;;;4122280;34;20149;-63
2021/12/18 05:26:32;;;;;;;22.50;14.75;;;;;;;;;;4120709;34;20108;-64
2021/12/18 05:28:58;;;;;;;22.90;15.75;;;;;;;;;;4119420;34;20104;-64
2021/12/18 05:31:38;;;;;;;22.98;14.77;;;;;;;;;;4118976;34;20241;-64
2021/12/18 05:34:05;;;;;;;19.60;13.93;;;;;;;;;;4120704;34;20115;-64
2021/12/18 05:39:05;;;;;;;18.45;13.13;;;;;;;;;;4124086;34;20128;-65
2021/12/18 05:41:31;;;;;;;19.15;14.68;;;;;;;;;;4125805;34;20107;-68
2021/12/18 05:43:57;;;;;;;15.55;13.60;;;;;;;;;;4123167;34;20123;-68
2021/12/18 05:46:23;;;;;;;16.12;12.05;;;;;;;;;;4131866;34;20111;-68
2021/12/18 05:48:49;;;;;;;17.83;12.80;;;;;;;;;;4122085;34;20201;-70
2021/12/18 05:51:16;;;;;;;18.45;13.38;;;;;;;;;;4122632;34;20093;-69
2021/12/18 05:53:42;;;;;;;20.02;14.20;;;;;;;;;;4122845;34;20437;-68
2021/12/18 05:56:08;;;;;;;19.90;15.35;;;;;;;;;;4124138;34;20112;-66
2021/12/18 05:58:34;;;;;;;22.67;14.55;;;;;;;;;;4123870;34;20217;-67
2021/12/18 06:01:00;;;;;;;19.80;14.30;;;;;;;;;;4123658;34;20119;-67
2021/12/18 06:03:26;;;;;;;18.17;14.95;;;;;;;;;;4123946;34;20209;-67
2021/12/18 06:05:52;;;;;;;17.58;15.38;;;;;;;;;;4123763;34;20127;-67
2021/12/18 06:08:18;;;;;;;21.23;14.70;;;;;;;;;;4133566;34;20116;-68
2021/12/18 06:10:44;;;;;;;16.65;14.38;;;;;;;;;;4123806;34;20135;-68
2021/12/18 06:13:10;;;;;;;18.90;14.43;;;;;;;;;;4123645;34;20138;-68
2021/12/18 06:15:36;;;;;;;16.35;13.93;;;;;;;;;;4123722;34;20123;-68
2021/12/18 06:18:02;;;;;;;17.25;13.23;;;;;;;;;;4123612;34;20127;-68
2021/12/18 06:20:29;;;;;;;17.52;13.50;;;;;;;;;;4123697;34;20112;-68
2021/12/18 06:22:55;;;;;;;13.62;11.90;;;;;;;;;;4123654;34;20222;-68
2021/12/18 06:25:22;;;;;;;18.08;11.52;;;;;;;;;;4123605;34;20130;-68
2021/12/18 06:27:48;;;;;;;13.10;10.35;;;;;;;;;;4123915;34;20136;-69
2021/12/18 06:30:17;;;;;;;11.90;9.90;;;;;;;;;;4123546;34;20104;-68
2021/12/18 06:32:43;;;;;;;13.48;9.77;;;;;;;;;;4123540;34;20100;-69
2021/12/18 06:35:09;;;;;;;11.77;8.73;;;;;;;;;;4123660;34;20524;-69
2021/12/18 06:37:36;;;;;;;10.40;8.23;;;;;;;;;;4133139;34;20127;-69
2021/12/18 06:40:03;;;;;;;12.20;9.60;;;;;;;;;;4123471;34;20545;-69
2021/12/18 06:42:30;;;;;;;12.15;8.63;;;;;;;;;;4123746;34;20158;-68
2021/12/18 06:44:56;;;;;;;11.02;9.85;;;;;;;;;;4123242;34;20864;-68
2021/12/18 06:47:22;;;;;;;10.32;8.98;;;;;;;;;;4123485;34;20112;-68
2021/12/18 06:49:48;;;;;;;17.90;11.15;;;;;;;;;;4123586;34;20118;-69
2021/12/18 06:52:14;;;;;;;14.23;10.13;;;;;;;;;;4123674;34;20463;-68
2021/12/18 06:54:40;;;;;;;12.98;10.07;;;;;;;;;;4123551;34;20119;-68
2021/12/18 06:57:06;;;;;;;14.80;10.23;;;;;;;;;;4123308;34;20563;-68
2021/12/18 06:59:32;;;;;;;15.35;10.45;;;;;;;;;;4123292;34;20112;-68
2021/12/18 07:01:58;;;;;;;13.57;10.52;;;;;;;;;;4123223;34;20126;-69
2021/12/18 07:04:24;;;;;;;15.90;11.25;;;;;;;;;;4123193;34;20122;-70
2021/12/18 07:06:52;;;;;;;14.50;10.82;;;;;;;;;;4123396;34;20198;-69
2021/12/18 07:09:19;;;;;;;14.77;10.82;;;;;;;;;;4111187;34;20215;-68
2021/12/18 07:11:45;;;;;;;12.18;10.10;;;;;;;;;;4123263;34;20195;-69
2021/12/18 07:14:12;;;;;;;15.68;10.13;;;;;;;;;;4123485;34;20132;-70
2021/12/18 07:16:39;;;;;;;12.95;9.90;;;;;;;;;;4111046;34;20111;-69
2021/12/18 07:19:05;;;;;;;12.57;10.02;;;;;;;;;;4123257;34;20131;-68
2021/12/18 07:21:31;;;;;;;13.98;9.65;;;;;;;;;;4123237;34;20213;-70
2021/12/18 07:23:57;;;;;;;13.50;9.25;;;;;;;;;;4123214;34;20539;-63
2021/12/18 07:26:23;;;;;;;10.50;9.23;;;;;;;;;;4123324;34;20122;-73
2021/12/18 07:28:49;;;;;;;10.43;9.23;;;;;;;;;;4132882;34;20123;-66
2021/12/18 07:31:15;;;;;;;10.73;9.02;;;;;;;;;;4123576;34;20110;-75
2021/12/18 07:33:43;;;;;;;13.90;10.23;;;;;;;;;;4123775;34;20505;-72
2021/12/18 07:36:10;;;;;;;15.50;12.35;;;;;;;;;;4123131;34;20547;-74
2021/12/18 07:38:37;;;;;;;23.45;14.95;;;;;;;;;;4123198;34;20112;-73
2021/12/18 07:41:03;;;;;;;20.55;12.85;;;;;;;;;;4110964;34;20080;-73
2021/12/18 07:43:29;;;;;;;22.80;17.23;;;;;;;;;;4110969;34;20130;-74
2021/12/18 07:45:55;;;;;;;12.30;10.95;;;;;;;;;;4099782;34;20119;-74
2021/12/18 07:48:21;;;;;;;12.07;9.73;;;;;;;;;;4123002;34;20539;-77
2021/12/18 07:50:47;;;;;;;14.45;12.95;;;;;;;;;;4110913;34;20119;-72
2021/12/18 07:53:13;;;;;;;23.27;19.77;;;;;;;;;;4110370;34;20131;-73
2021/12/18 07:55:39;;;;;;;28.23;24.23;;;;;;;;;;4122392;34;20130;-72
2021/12/18 07:58:05;;;;;;;22.73;20.02;;;;;;;;;;4122662;34;20112;-73
2021/12/18 08:00:33;;;;;;;22.65;20.15;;;;;;;;;;4123344;34;20123;-69
2021/12/18 08:03:08;;;;;;;23.73;20.98;;;;;;;;;;4111099;34;20469;-69
2021/12/18 08:05:37;;;;;;;19.65;15.70;;;;;;;;;;4111025;34;20131;-69
2021/12/18 08:08:05;;;;;;;23.38;16.12;;;;;;;;;;4111076;34;20089;-68
2021/12/18 08:10:32;;;;;;;18.15;14.27;;;;;;;;;;4110558;34;20194;-68
2021/12/18 08:12:58;;;;;;;18.77;11.88;;;;;;;;;;4122788;34;20115;-68
2021/12/18 08:15:24;;;;;;;16.42;12.05;;;;;;;;;;4122411;34;20130;-68
2021/12/18 08:17:50;;;;;;;18.62;12.80;;;;;;;;;;4122785;34;20143;-68
2021/12/18 08:20:16;;;;;;;15.93;12.50;;;;;;;;;;4110215;34;20223;-68
2021/12/18 08:22:42;;;;;;;17.75;11.68;;;;;;;;;;4122796;34;20122;-67
2021/12/18 08:25:09;;;;;;;18.20;12.07;;;;;;;;;;4122692;34;20107;-65
2021/12/18 08:27:35;;;;;;;16.75;11.30;;;;;;;;;;4122695;34;20542;-65
2021/12/18 08:30:01;;;;;;;16.58;11.10;;;;;;;;;;4123028;34;20123;-63
2021/12/18 08:32:27;;;;;;;16.58;9.60;;;;;;;;;;4122544;34;20115;-64
2021/12/18 08:34:53;;;;;;;11.77;9.05;;;;;;;;;;4122491;34;20103;-63
2021/12/18 08:37:20;;;;;;;12.13;8.95;;;;;;;;;;4122573;34;20195;-65
2021/12/18 08:39:48;;;;;;;10.25;8.35;;;;;;;;;;4122525;34;20209;-65
2021/12/18 08:42:14;;;;;;;11.27;8.60;;;;;;;;;;4122564;34;20615;-63
2021/12/18 08:44:41;;;;;;;15.02;9.00;;;;;;;;;;4122586;34;20119;-62
2021/12/18 08:47:07;;;;;;;10.18;8.38;;;;;;;;;;4132234;34;20464;-62
2021/12/18 08:49:33;;;;;;;12.52;9.27;;;;;;;;;;4122551;34;20119;-62
2021/12/18 08:51:59;;;;;;;14.68;10.63;;;;;;;;;;4122397;34;20130;-62
2021/12/18 08:54:25;;;;;;;14.68;10.40;;;;;;;;;;4122489;34;20112;-63
2021/12/18 08:56:51;;;;;;;16.77;11.20;;;;;;;;;;4109894;34;20119;-62
2021/12/18 08:59:17;;;;;;;13.20;10.65;;;;;;;;;;4122519;34;20111;-63
2021/12/18 09:01:43;;;;;;;16.92;12.65;;;;;;;;;;4122151;34;20131;-63
2021/12/18 09:04:09;;;;;;;18.08;13.02;;;;;;;;;;4122432;34;20116;-62
2021/12/18 09:06:35;;;;;;;15.60;12.40;;;;;;;;;;4122246;34;20131;-63
2021/12/18 09:09:01;;;;;;;15.65;12.68;;;;;;;;;;4123920;34;20601;-62
2021/12/18 09:11:28;;;;;;;16.00;11.95;;;;;;;;;;4128056;34;20107;-62
2021/12/18 09:13:54;;;;;;;13.18;10.25;;;;;;;;;;4136598;34;20123;-63
2021/12/18 09:16:20;;;;;;;12.35;9.63;;;;;;;;;;4136316;34;20103;-62
2021/12/18 09:18:46;;;;;;;10.60;8.93;;;;;;;;;;4137074;34;20107;-62
2021/12/18 09:21:12;;;;;;;10.90;8.80;;;;;;;;;;4137673;34;20107;-63
2021/12/18 09:23:38;;;;;;;8.40;7.45;;;;;;;;;;4137568;34;20521;-63
2021/12/18 09:26:04;;;;;;;9.00;8.10;;;;;;;;;;4135190;34;20127;-62
2021/12/18 09:28:30;;;;;;;8.30;7.40;;;;;;;;;;4136653;34;20107;-63
2021/12/18 09:31:04;;;;;;;7.80;6.85;;;;;;;;;;4136519;34;20520;-62
2021/12/18 09:33:30;;;;;;;7.68;6.87;;;;;;;;;;4136611;34;20116;-62
2021/12/18 09:35:58;;;;;;;7.90;6.90;;;;;;;;;;4145517;34;20119;-62
2021/12/18 09:38:24;;;;;;;9.27;7.65;;;;;;;;;;4135475;34;20123;-63
2021/12/18 09:40:50;;;;;;;8.88;7.97;;;;;;;;;;4135357;34;20546;-63
2021/12/18 09:43:16;;;;;;;8.23;7.43;;;;;;;;;;4145233;34;20734;-63
2021/12/18 09:45:46;;;;;;;9.18;7.85;;;;;;;;;;4135222;34;20088;-61
2021/12/18 09:48:12;;;;;;;8.00;6.80;;;;;;;;;;4135602;34;20214;-61
2021/12/18 09:50:41;;;;;;;7.90;6.62;;;;;;;;;;4134256;34;20129;-62
2021/12/18 09:53:07;;;;;;;7.50;6.65;;;;;;;;;;4137201;34;20119;-62
2021/12/18 09:55:33;;;;;;;7.30;5.68;;;;;;;;;;4137328;34;20137;-62
2021/12/18 09:57:59;;;;;;;6.60;5.90;;;;;;;;;;4137410;34;20118;-62
2021/12/18 10:00:26;;;;;;;6.07;5.47;;;;;;;;;;4137477;34;20118;-62
2021/12/18 10:02:52;;;;;;;7.00;5.75;;;;;;;;;;4125751;34;20135;-62
2021/12/18 10:05:33;;;;;;;6.85;6.07;;;;;;;;;;4123815;34;20115;-62
2021/12/18 10:08:12;;;;;;;5.72;5.20;;;;;;;;;;4123934;34;20498;-62
2021/12/18 10:10:57;;;;;;;5.37;4.82;;;;;;;;;;4123912;34;20225;-63
2021/12/18 10:13:23;;;;;;;5.73;5.10;;;;;;;;;;4123973;34;20107;-63
2021/12/18 10:16:09;;;;;;;6.70;5.43;;;;;;;;;;4123624;34;20197;-63
2021/12/18 10:18:35;;;;;;;6.00;5.40;;;;;;;;;;4123393;34;20204;-61
2021/12/18 10:21:18;;;;;;;5.87;5.25;;;;;;;;;;4123644;34;20192;-64
2021/12/18 10:23:46;;;;;;;6.78;5.57;;;;;;;;;;4123800;34;20546;-64
2021/12/18 10:26:31;;;;;;;6.45;5.45;;;;;;;;;;4123693;34;20095;-64
2021/12/18 10:28:57;;;;;;;7.00;6.22;;;;;;;;;;4123948;34;20199;-64
2021/12/18 10:31:41;;;;;;;9.50;5.97;;;;;;;;;;4123605;34;20650;-63
2021/12/18 10:34:27;;;;;;;7.18;6.07;;;;;;;;;;4123924;34;20120;-63
2021/12/18 10:37:14;;;;;;;8.45;6.72;;;;;;;;;;4123676;34;20122;-71
2021/12/18 10:39:46;;;;;;;7.65;6.65;;;;;;;;;;4123578;34;20248;-72
2021/12/18 10:42:24;;;;;;;8.05;6.53;;;;;;;;;;4133195;34;20140;-71
2021/12/18 10:45:05;;;;;;;7.35;6.20;;;;;;;;;;4123608;34;20116;-71
2021/12/18 10:48:00;;;;;;;6.95;6.22;;;;;;;;;;4123903;34;20206;-72
2021/12/18 10:50:31;;;;;;;9.48;6.60;;;;;;;;;;4133259;34;20127;-70
2021/12/18 10:53:04;;;;;;;8.15;6.82;;;;;;;;;;4123438;34;20207;-71
2021/12/18 10:55:36;;;;;;;8.40;6.87;;;;;;;;;;4123499;34;20178;-71
2021/12/18 10:58:05;;;;;;;7.03;6.32;;;;;;;;;;4133196;34;20214;-70
2021/12/18 11:00:41;;;;;;;8.50;7.57;;;;;;;;;;4123362;34;20460;-71
2021/12/18 11:03:26;;;;;;;8.48;6.45;;;;;;;;;;4121983;34;20110;-72
2021/12/18 11:06:07;;;;;;;9.40;7.72;;;;;;;;;;4121892;34;20136;-74
2021/12/18 11:08:47;;;;;;;9.07;7.70;;;;;;;;;;4123448;34;20119;-75
2021/12/18 11:13:58;;;;;;;8.02;7.15;;;;;;;;;;4123386;34;20103;-74
2021/12/18 11:16:25;;;;;;;8.60;7.35;;;;;;;;;;4123369;34;20131;-75
2021/12/18 11:18:54;;;;;;;9.07;8.05;;;;;;;;;;4132988;34;20520;-74
2021/12/18 11:21:23;;;;;;;8.98;7.82;;;;;;;;;;4121997;34;20558;-74
2021/12/18 11:24:01;;;;;;;8.93;7.85;;;;;;;;;;4133321;34;20442;-74
2021/12/18 11:26:33;;;;;;;7.30;6.18;;;;;;;;;;4111902;34;20143;-74
2021/12/18 11:29:02;;;;;;;7.97;6.43;;;;;;;;;;4123475;34;20122;-74
2021/12/18 11:31:28;;;;;;;6.22;5.62;;;;;;;;;;4122428;34;20544;-72
2021/12/18 11:33:54;;;;;;;5.80;5.15;;;;;;;;;;4132915;34;20107;-72
2021/12/18 11:36:21;;;;;;;6.20;5.53;;;;;;;;;;4123323;34;20097;-73
2021/12/18 11:38:47;;;;;;;6.60;5.30;;;;;;;;;;4123273;34;20185;-73
2021/12/18 11:41:16;;;;;;;6.62;5.32;;;;;;;;;;4122928;34;20116;-73
2021/12/18 11:43:45;;;;;;;5.75;5.15;;;;;;;;;;4132954;34;20119;-74
2021/12/18 11:46:31;;;;;;;5.32;4.80;;;;;;;;;;4123157;34;20139;-74
2021/12/18 11:48:59;;;;;;;5.55;5.00;;;;;;;;;;4123111;34;20119;-76
2021/12/18 11:51:27;;;;;;;5.35;4.85;;;;;;;;;;4132652;34;20205;-75
2021/12/18 11:53:53;;;;;;;5.80;5.15;;;;;;;;;;4122900;34;20583;-76
2021/12/18 11:56:22;;;;;;;5.87;4.85;;;;;;;;;;4110586;34;20116;-76
2021/12/18 11:58:49;;;;;;;5.12;4.60;;;;;;;;;;4122976;34;20096;-75
2021/12/18 12:01:21;;;;;;;5.25;4.70;;;;;;;;;;4110699;34;20229;-75
2021/12/18 12:03:50;;;;;;;5.10;4.55;;;;;;;;;;4123177;34;20118;-75
2021/12/18 12:06:19;;;;;;;6.20;5.20;;;;;;;;;;4132985;34;20120;-76
2021/12/18 12:08:45;;;;;;;5.28;4.65;;;;;;;;;;4122600;34;20282;-73
2021/12/18 12:11:29;;;;;;;5.97;4.65;;;;;;;;;;4122881;34;20131;-74
2021/12/18 12:14:09;;;;;;;5.85;5.20;;;;;;;;;;4132931;34;20122;-73
2021/12/18 12:16:46;;;;;;;5.30;4.80;;;;;;;;;;4132537;34;20100;-73
2021/12/18 12:19:20;;;;;;;5.80;4.97;;;;;;;;;;4123011;34;20104;-74
2021/12/18 12:21:51;;;;;;;6.22;5.53;;;;;;;;;;4110960;34;20123;-74
2021/12/18 12:24:19;;;;;;;6.18;5.57;;;;;;;;;;4121418;34;20519;-75
2021/12/18 12:30:27;;;;;;;6.78;5.10;;;;;;;;;;4095065;34;20104;-63
2021/12/18 12:32:58;;;;;;;5.12;4.62;;;;;;;;;;4122680;34;20111;-63
2021/12/18 12:35:25;;;;;;;4.87;4.37;;;;;;;;;;4122443;34;20438;-63
2021/12/18 12:37:51;;;;;;;5.85;4.65;;;;;;;;;;4122472;34;20100;-63
2021/12/18 12:40:21;;;;;;;5.20;4.70;;;;;;;;;;4139511;29;20516;-62
2021/12/18 12:43:09;;;;;;;4.43;4.03;;;;;;;;;;4124662;34;20108;-62
2021/12/18 12:45:37;;;;;;;5.95;5.05;;;;;;;;;;4124569;34;20213;-63
2021/12/18 12:48:04;;;;;;;6.18;4.93;;;;;;;;;;4124830;34;21202;-63
2021/12/18 12:50:31;;;;;;;7.57;5.93;;;;;;;;;;4124730;34;20450;-63
2021/12/18 12:53:02;;;;;;;6.87;5.60;;;;;;;;;;4124489;34;20207;-63
2021/12/18 12:55:30;;;;;;;10.98;6.85;;;;;;;;;;4124353;34;20119;-63
2021/12/18 12:58:01;;;;;;;9.63;7.10;;;;;;;;;;4124401;34;20100;-61
2021/12/18 13:00:27;;;;;;;9.65;7.32;;;;;;;;;;4112053;34;20493;-61
2021/12/18 13:02:55;;;;;;;6.47;5.43;;;;;;;;;;4124368;34;20082;-62
2021/12/18 13:05:22;;;;;;;7.60;6.47;;;;;;;;;;4124281;34;20507;-63
2021/12/18 13:07:52;;;;;;;7.60;6.00;;;;;;;;;;4124379;34;20434;-63
2021/12/18 13:10:20;;;;;;;6.97;6.00;;;;;;;;;;4124223;34;20441;-63
2021/12/18 13:12:54;;;;;;;6.90;6.05;;;;;;;;;;4124332;34;20290;-61
2021/12/18 13:15:20;;;;;;;9.15;7.12;;;;;;;;;;4112029;34;20120;-63
2021/12/18 13:17:47;;;;;;;8.05;7.03;;;;;;;;;;4124261;34;20211;-63
2021/12/18 13:20:14;;;;;;;8.13;6.30;;;;;;;;;;4124434;34;20433;-63
2021/12/18 13:22:51;;;;;;;7.45;6.68;;;;;;;;;;4124603;34;20122;-63
2021/12/18 13:25:17;;;;;;;8.18;7.37;;;;;;;;;;4124217;34;20547;-61
2021/12/18 13:28:02;;;;;;;9.85;8.57;;;;;;;;;;4124269;34;20128;-62
2021/12/18 13:30:28;;;;;;;9.38;8.30;;;;;;;;;;4124155;34;20197;-63
2021/12/18 13:32:59;;;;;;;14.52;9.85;;;;;;;;;;4124445;34;20118;-63
2021/12/18 13:35:28;;;;;;;6.97;6.10;;;;;;;;;;4123832;34;20130;-61
2021/12/18 13:38:00;;;;;;;5.65;4.65;;;;;;;;;;4087876;34;20119;-63
2021/12/18 13:40:28;;;;;;;4.65;3.83;;;;;;;;;;4124169;34;20103;-63
2021/12/18 13:43:07;;;;;;;4.87;4.28;;;;;;;;;;4124131;34;20615;-62
2021/12/18 13:45:47;;;;;;;6.10;5.40;;;;;;;;;;4120930;34;20249;-61
2021/12/18 13:48:13;;;;;;;6.75;5.70;;;;;;;;;;4124045;34;20108;-62
2021/12/18 13:50:39;;;;;;;6.20;5.60;;;;;;;;;;4123607;34;20512;-62
2021/12/18 13:53:06;;;;;;;8.30;6.00;;;;;;;;;;4123556;34;20111;-61
2021/12/18 13:55:43;;;;;;;11.98;9.82;;;;;;;;;;4122036;34;20115;-62
2021/12/18 13:58:29;;;;;;;14.05;11.73;;;;;;;;;;4124066;34;20464;-61
2021/12/18 14:01:01;;;;;;;23.83;18.00;;;;;;;;;;4123472;34;20212;-62
2021/12/18 14:03:36;;;;;;;28.48;20.85;;;;;;;;;;4123813;34;20130;-62
2021/12/18 14:06:20;;;;;;;26.52;20.55;;;;;;;;;;4123248;34;20535;-62
2021/12/18 14:08:52;;;;;;;21.23;16.25;;;;;;;;;;4122457;34;20184;-61
2021/12/18 14:11:26;;;;;;;17.15;14.90;;;;;;;;;;4110927;34;20184;-62
2021/12/18 14:13:58;;;;;;;16.62;13.50;;;;;;;;;;4112527;34;20115;-62
2021/12/18 14:16:24;;;;;;;17.05;13.82;;;;;;;;;;4123458;34;20563;-61
2021/12/18 14:19:24;;;;;;;18.00;13.70;;;;;;;;;;4123666;34;20192;-61
2021/12/18 14:21:50;;;;;;;19.10;13.52;;;;;;;;;;4117923;34;20601;-62
2021/12/18 14:24:18;;;;;;;27.05;19.42;;;;;;;;;;4123603;34;20120;-62
2021/12/18 14:27:00;;;;;;;29.00;21.17;;;;;;;;;;4123384;34;20214;-63
2021/12/18 14:29:34;;;;;;;23.70;20.20;;;;;;;;;;4123670;34;20229;-63
2021/12/18 14:32:01;;;;;;;18.75;15.82;;;;;;;;;;4122864;34;20124;-62
2021/12/18 14:34:40;;;;;;;14.70;13.15;;;;;;;;;;4123814;34;20110;-63
2021/12/18 14:37:09;;;;;;;15.15;13.55;;;;;;;;;;4123438;34;20123;-62
2021/12/18 14:39:38;;;;;;;20.73;16.62;;;;;;;;;;4123103;34;20112;-62
2021/12/18 14:42:17;;;;;;;17.55;15.75;;;;;;;;;;4120358;34;20109;-63
2021/12/18 14:44:46;;;;;;;17.60;15.80;;;;;;;;;;4123241;34;20119;-63
2021/12/18 14:47:18;;;;;;;16.85;15.15;;;;;;;;;;4115075;34;20516;-64
2021/12/18 14:50:09;;;;;;;13.68;12.20;;;;;;;;;;4097927;34;20477;-63
2021/12/18 14:53:05;;;;;;;12.90;11.60;;;;;;;;;;4109919;34;20115;-62
2021/12/18 14:55:35;;;;;;;9.07;8.18;;;;;;;;;;4110172;34;20108;-63
2021/12/18 14:58:07;;;;;;;8.82;7.93;;;;;;;;;;4110092;34;20195;-65
2021/12/18 15:00:37;;;;;;;9.32;7.78;;;;;;;;;;4109916;34;20274;-66
2021/12/18 15:03:13;;;;;;;9.27;7.68;;;;;;;;;;4122229;34;20115;-65
2021/12/18 15:05:57;;;;;;;8.05;6.43;;;;;;;;;;4111197;34;20212;-65
2021/12/18 15:08:36;;;;;;;9.30;8.23;;;;;;;;;;4122790;34;20126;-64
2021/12/18 15:11:06;;;;;;;8.95;8.05;;;;;;;;;;4110330;34;20119;-63
2021/12/18 15:13:35;;;;;;;10.52;8.95;;;;;;;;;;4122987;34;20108;-64
2021/12/18 15:16:31;;;;;;;10.38;9.27;;;;;;;;;;4122600;34;20119;-64
2021/12/18 15:19:00;;;;;;;13.02;10.93;;;;;;;;;;4110467;34;20219;-64
2021/12/18 15:21:28;;;;;;;16.17;13.62;;;;;;;;;;4097874;34;20552;-64
2021/12/18 15:23:54;;;;;;;15.38;13.10;;;;;;;;;;4121368;34;20127;-64
2021/12/18 15:26:20;;;;;;;13.27;11.90;;;;;;;;;;4121316;34;20195;-65
2021/12/18 15:28:46;;;;;;;11.40;10.20;;;;;;;;;;4108690;34;20115;-65
2021/12/18 15:31:13;;;;;;;15.43;11.70;;;;;;;;;;4121046;34;20100;-64
2021/12/18 15:33:39;;;;;;;15.70;10.50;;;;;;;;;;4121280;34;20127;-66
2021/12/18 15:36:05;;;;;;;17.80;10.40;;;;;;;;;;4122323;34;20115;-78
2021/12/18 15:38:32;;;;;;;18.67;12.13;;;;;;;;;;4122833;34;20127;-68
2021/12/18 15:40:58;;;;;;;17.58;12.15;;;;;;;;;;4110559;34;20513;-78
2021/12/18 15:43:24;;;;;;;25.08;17.42;;;;;;;;;;4122983;34;20548;-66
2021/12/18 15:45:51;;;;;;;22.58;17.48;;;;;;;;;;4110733;34;20212;-70
2021/12/18 15:48:17;;;;;;;19.20;15.23;;;;;;;;;;4110554;34;20522;-72
2021/12/18 15:50:43;;;;;;;18.55;16.40;;;;;;;;;;4122907;34;20449;-70
2021/12/18 15:53:10;;;;;;;18.73;15.75;;;;;;;;;;4110773;34;20139;-67
